Hext, Texas
Current Conditions -  °F | °C
As of 1:15 PM on Sunday 21 Dec 2014 (Local Time) from KBBD Reporting Station
Overcast Overcast  
Wind Chill: 52°   Ceiling: 1400
Heat Index: 52°   Visibility: 10mi
Dew Point: 45°   Wind: 15mph
Humidity: 76%   Direction: 190°S
Pressure: 29.9"   Gusts: NA
Location:  30.87°N, 99.53°W
Report Text: KBBD 211915Z AUTO 19013KT 10SM OVC014 11/07 A2990 RMK
Loading
Personal Weather Stations






























Interactive Weather Map New forecast layout! Learn more

10-Day Weather Forecast

Advertisements
Track Severe Weather on mobile